Terminal Aerodrome Forecast
Issued by NWS Charleston, WV

Current Version | Previous Version | Graphics & Text | Print | Product List | Glossary Off
Versions: 1 2 3 4 5 6 7 8 9 10 11 12 13 14 15 16 17 18 19 20 21 22 23 24 25 26 27

804
FTUS41 KRLX 112322
TAFHTS
TAF
KHTS 112322Z 1200/1224 16003KT P6SM BKN150
     FM120300 20008KT P6SM BKN150
     FM121000 25009KT P6SM -SHSN BKN030
     FM121200 28010G17KT 6SM -SHSN OVC015
     FM121400 29013G24KT 6SM -SHSN BKN015
     FM121800 29014G24KT P6SM -SHSN BKN030=

USA.gov is the U.S. government's official web portal to all federal, state and local government web resources and services.